Terminal Aerodrome Forecast
Issued by NWS

Home | Current Version | Previous Version | Text Only | Print | Product List | Glossary Off
Versions: 1 2 3 4 5 6 7 8 9 10 11 12 13 14 15

000
FTUS43 KBIS 210524
TAFDIK
TAF
KDIK 210524Z 2106/2206 16015KT P6SM SCT080 BKN120
     FM211000 21009KT P6SM BKN100
     FM211400 28009KT P6SM FEW090 SCT250
     FM211800 31009KT P6SM FEW080 FEW200
     FM212000 32015G25KT P6SM FEW110 FEW250
     FM220200 30008KT P6SM SKC=

USA.gov is the U.S. government's official web portal to all federal, state and local government web resources and services.